Time;durP1;ratioP1;P1;durP2;ratioP2;P2;SDS_P1;SDS_P2;PMS_P1;PMS_P2;Temp;Humidity;BMP_temperature;BMP_pressure;BME280_temperature;BME280_humidity;BME280_pressure;Samples;Min_cycle;Max_cycle;Signal;HPM_P1;HPM_P2
2023/07/03 00:01:53;;;;;;;4.93;2.13;;;;;;;;;;5040298;28;20052;-72
2023/07/03 00:04:18;;;;;;;4.45;2.38;;;;;;;;;;5040074;28;20022;-73
2023/07/03 00:06:45;;;;;;;4.03;2.30;;;;;;;;;;5038852;28;20098;-74
2023/07/03 00:09:11;;;;;;;4.70;2.25;;;;;;;;;;5040136;28;20033;-73
2023/07/03 00:11:36;;;;;;;5.78;2.40;;;;;;;;;;5040108;28;20033;-73
2023/07/03 00:14:02;;;;;;;3.30;1.92;;;;;;;;;;5039936;28;20036;-73
2023/07/03 00:16:27;;;;;;;6.03;2.25;;;;;;;;;;5040046;28;20076;-73
2023/07/03 00:18:52;;;;;;;4.65;2.15;;;;;;;;;;5040080;28;20199;-73
2023/07/03 00:21:18;;;;;;;4.75;2.33;;;;;;;;;;5040097;28;20428;-73
2023/07/03 00:23:43;;;;;;;4.57;2.33;;;;;;;;;;5039696;28;20030;-72
2023/07/03 00:26:11;;;;;;;3.92;2.30;;;;;;;;;;5038324;28;20029;-73
2023/07/03 00:28:37;;;;;;;4.30;2.33;;;;;;;;;;5037518;28;20156;-73
2023/07/03 00:31:02;;;;;;;4.53;2.60;;;;;;;;;;5035781;28;20494;-73
2023/07/03 00:33:27;;;;;;;4.68;2.10;;;;;;;;;;5037567;28;20052;-74
2023/07/03 00:35:53;;;;;;;3.88;2.15;;;;;;;;;;5038089;28;20048;-73
2023/07/03 00:38:18;;;;;;;3.63;2.20;;;;;;;;;;5036953;28;20035;-72
2023/07/03 00:40:44;;;;;;;4.07;2.30;;;;;;;;;;5036684;28;20040;-74
2023/07/03 00:43:09;;;;;;;5.35;2.20;;;;;;;;;;5038072;28;20029;-74
2023/07/03 00:45:36;;;;;;;5.60;2.42;;;;;;;;;;5039930;28;20475;-70
2023/07/03 00:48:01;;;;;;;4.60;2.40;;;;;;;;;;5040543;28;20072;-72
2023/07/03 00:50:27;;;;;;;5.50;2.53;;;;;;;;;;5040761;28;20060;-74
2023/07/03 00:52:58;;;;;;;5.10;2.70;;;;;;;;;;5040815;28;20025;-72
2023/07/03 00:55:24;;;;;;;6.18;2.40;;;;;;;;;;5039553;28;20301;-74
2023/07/03 00:57:51;;;;;;;4.20;2.33;;;;;;;;;;5042890;28;20060;-73
2023/07/03 01:00:17;;;;;;;3.75;2.17;;;;;;;;;;5041887;28;20025;-72
2023/07/03 01:02:50;;;;;;;5.45;2.70;;;;;;;;;;5038711;28;20033;-73
2023/07/03 01:05:19;;;;;;;7.13;2.55;;;;;;;;;;5043095;28;20037;-73
2023/07/03 01:07:46;;;;;;;4.90;2.40;;;;;;;;;;5043058;28;20235;-73
2023/07/03 01:10:15;;;;;;;7.53;2.95;;;;;;;;;;5043288;28;20047;-73
2023/07/03 01:12:44;;;;;;;5.73;2.63;;;;;;;;;;5043486;28;20052;-73
2023/07/03 01:15:12;;;;;;;4.25;2.28;;;;;;;;;;5043059;28;20261;-73
2023/07/03 01:17:40;;;;;;;5.25;2.50;;;;;;;;;;5042079;28;20425;-74
2023/07/03 01:20:09;;;;;;;5.15;2.42;;;;;;;;;;5043115;28;20330;-74
2023/07/03 01:22:59;;;;;;;4.90;2.38;;;;;;;;;;5035558;28;20301;-73
2023/07/03 01:25:26;;;;;;;3.80;2.13;;;;;;;;;;5022877;28;20214;-74
2023/07/03 01:27:54;;;;;;;6.22;2.17;;;;;;;;;;5023084;28;20333;-74
2023/07/03 01:30:21;;;;;;;4.45;2.50;;;;;;;;;;5023190;28;20030;-74
2023/07/03 01:32:49;;;;;;;5.40;2.65;;;;;;;;;;5023041;28;20057;-72
2023/07/03 01:35:17;;;;;;;5.22;2.50;;;;;;;;;;5022943;28;20033;-73
2023/07/03 01:37:46;;;;;;;7.25;2.25;;;;;;;;;;5022644;28;20130;-73
2023/07/03 01:40:17;;;;;;;4.73;2.47;;;;;;;;;;5021365;28;20049;-74
2023/07/03 01:42:45;;;;;;;4.85;2.17;;;;;;;;;;5022696;28;20168;-74
2023/07/03 01:45:11;;;;;;;10.30;2.45;;;;;;;;;;5021468;28;20036;-74
2023/07/03 01:47:37;;;;;;;4.78;2.05;;;;;;;;;;5022551;28;20025;-74
2023/07/03 01:50:06;;;;;;;5.35;2.58;;;;;;;;;;5021813;28;20092;-73
2023/07/03 01:52:38;;;;;;;11.55;2.75;;;;;;;;;;5020626;28;20022;-74
2023/07/03 01:55:09;;;;;;;8.88;2.22;;;;;;;;;;5021836;28;20021;-74
2023/07/03 01:57:52;;;;;;;5.03;2.33;;;;;;;;;;5021380;28;20053;-74
2023/07/03 02:00:30;;;;;;;4.75;2.42;;;;;;;;;;5022579;28;20551;-73
2023/07/03 02:03:01;;;;;;;4.47;1.98;;;;;;;;;;5022506;28;20099;-72
2023/07/03 02:05:30;;;;;;;4.55;2.30;;;;;;;;;;5022170;28;20056;-72
2023/07/03 02:07:59;;;;;;;5.28;2.55;;;;;;;;;;5021427;28;20387;-73
2023/07/03 02:10:25;;;;;;;5.25;2.83;;;;;;;;;;5021874;28;20030;-73
2023/07/03 02:12:50;;;;;;;4.32;2.38;;;;;;;;;;5020970;28;20048;-74
2023/07/03 02:15:18;;;;;;;3.88;2.25;;;;;;;;;;5021823;28;20353;-74
2023/07/03 02:17:43;;;;;;;5.75;2.22;;;;;;;;;;5022162;28;20413;-73
2023/07/03 02:20:14;;;;;;;4.28;2.17;;;;;;;;;;5021983;28;20089;-72
2023/07/03 02:22:42;;;;;;;3.33;2.05;;;;;;;;;;5020984;28;20040;-73
2023/07/03 02:25:09;;;;;;;5.07;2.35;;;;;;;;;;5018985;28;20440;-72
2023/07/03 02:27:35;;;;;;;5.07;2.42;;;;;;;;;;5020255;28;20333;-74
2023/07/03 02:30:00;;;;;;;6.25;2.22;;;;;;;;;;5021986;28;20076;-74
2023/07/03 02:32:39;;;;;;;7.47;2.47;;;;;;;;;;5021765;28;20037;-73
2023/07/03 02:35:06;;;;;;;5.63;2.13;;;;;;;;;;5021772;28;20030;-74
2023/07/03 02:37:32;;;;;;;7.10;2.67;;;;;;;;;;5021128;28;20033;-73
2023/07/03 02:39:57;;;;;;;4.03;2.20;;;;;;;;;;5021757;28;20033;-72
2023/07/03 02:42:22;;;;;;;4.72;2.40;;;;;;;;;;5021783;28;20063;-73
2023/07/03 02:44:48;;;;;;;6.43;2.42;;;;;;;;;;5018787;28;20037;-73
2023/07/03 02:47:14;;;;;;;6.20;2.67;;;;;;;;;;5021594;28;20036;-74
2023/07/03 02:49:40;;;;;;;5.63;2.90;;;;;;;;;;5021671;28;20085;-73
2023/07/03 02:52:05;;;;;;;5.97;2.47;;;;;;;;;;5015168;28;20052;-73
2023/07/03 02:54:31;;;;;;;4.78;2.17;;;;;;;;;;5020545;28;20262;-74
2023/07/03 02:56:56;;;;;;;5.60;2.25;;;;;;;;;;5019761;28;20018;-73
2023/07/03 02:59:22;;;;;;;7.43;2.63;;;;;;;;;;5021581;28;20026;-73
2023/07/03 03:01:51;;;;;;;7.40;2.83;;;;;;;;;;5021364;28;20026;-73
2023/07/03 03:04:17;;;;;;;7.43;2.90;;;;;;;;;;5019417;28;20033;-73
2023/07/03 03:06:43;;;;;;;5.57;2.40;;;;;;;;;;5019622;28;20042;-73
2023/07/03 03:09:09;;;;;;;9.90;2.38;;;;;;;;;;5019001;28;20034;-73
2023/07/03 03:11:35;;;;;;;6.00;2.30;;;;;;;;;;5020105;28;20040;-74
2023/07/03 03:14:01;;;;;;;5.32;2.30;;;;;;;;;;5020545;28;20084;-72
2023/07/03 03:16:26;;;;;;;4.53;2.08;;;;;;;;;;5020308;28;20030;-73
2023/07/03 03:18:52;;;;;;;4.85;2.42;;;;;;;;;;5019548;28;20034;-72
2023/07/03 03:21:17;;;;;;;5.70;2.65;;;;;;;;;;5020287;28;20053;-68
2023/07/03 03:23:43;;;;;;;7.43;2.53;;;;;;;;;;5020685;28;20049;-73
2023/07/03 03:26:08;;;;;;;5.28;2.53;;;;;;;;;;5019215;28;20071;-73
2023/07/03 03:28:34;;;;;;;6.50;2.55;;;;;;;;;;5020816;28;20030;-73
2023/07/03 03:30:59;;;;;;;5.32;1.85;;;;;;;;;;5019832;28;20025;-73
2023/07/03 03:33:25;;;;;;;5.30;2.70;;;;;;;;;;5017978;28;20080;-73
2023/07/03 03:35:53;;;;;;;4.75;2.35;;;;;;;;;;5018670;28;20041;-73
2023/07/03 03:38:18;;;;;;;7.18;2.65;;;;;;;;;;5017025;28;20028;-72
2023/07/03 03:40:54;;;;;;;5.68;2.30;;;;;;;;;;5019998;28;20273;-73
2023/07/03 03:43:19;;;;;;;4.63;2.33;;;;;;;;;;5020623;28;20018;-74
2023/07/03 03:46:01;;;;;;;5.18;2.47;;;;;;;;;;5020614;28;20072;-71
2023/07/03 03:48:29;;;;;;;7.32;2.53;;;;;;;;;;5020368;28;20041;-72
2023/07/03 03:50:55;;;;;;;6.97;2.17;;;;;;;;;;5020547;28;20477;-74
2023/07/03 03:53:24;;;;;;;5.38;2.50;;;;;;;;;;5019592;28;20025;-74
2023/07/03 03:55:51;;;;;;;5.15;2.38;;;;;;;;;;5019068;28;20026;-73
2023/07/03 03:58:17;;;;;;;7.00;2.90;;;;;;;;;;5019738;28;20048;-73
2023/07/03 04:00:43;;;;;;;6.43;2.55;;;;;;;;;;5020487;28;20262;-73
2023/07/03 04:03:08;;;;;;;8.98;2.90;;;;;;;;;;5019211;28;20222;-74
2023/07/03 04:05:34;;;;;;;6.93;2.67;;;;;;;;;;5019018;28;20033;-73
2023/07/03 04:07:59;;;;;;;4.18;2.35;;;;;;;;;;5019880;28;20030;-73
2023/07/03 04:10:25;;;;;;;6.60;3.53;;;;;;;;;;5020602;28;20034;-73
2023/07/03 04:12:51;;;;;;;6.50;2.72;;;;;;;;;;5020115;28;20037;-73
2023/07/03 04:15:16;;;;;;;6.40;2.63;;;;;;;;;;5020513;28;20060;-72
2023/07/03 04:17:42;;;;;;;7.13;2.85;;;;;;;;;;5019292;28;20029;-73
2023/07/03 04:20:10;;;;;;;3.65;2.25;;;;;;;;;;5020181;28;20337;-70
2023/07/03 04:22:35;;;;;;;6.75;2.85;;;;;;;;;;5023625;28;20326;-70
2023/07/03 04:25:02;;;;;;;4.35;2.30;;;;;;;;;;5024428;28;20025;-73
2023/07/03 04:27:27;;;;;;;6.15;2.67;;;;;;;;;;5022938;28;20092;-73
2023/07/03 04:29:53;;;;;;;4.90;2.72;;;;;;;;;;5024011;28;20325;-73
2023/07/03 04:32:19;;;;;;;8.07;3.13;;;;;;;;;;5021697;28;20050;-73
2023/07/03 04:34:44;;;;;;;7.25;2.58;;;;;;;;;;5024245;28;20064;-73
2023/07/03 04:37:09;;;;;;;5.95;2.50;;;;;;;;;;5022011;28;20259;-73
2023/07/03 04:39:35;;;;;;;6.65;3.10;;;;;;;;;;5024038;28;20026;-73
2023/07/03 04:42:00;;;;;;;6.50;2.65;;;;;;;;;;5023757;28;20314;-69
2023/07/03 04:44:29;;;;;;;5.78;2.55;;;;;;;;;;5020790;28;20014;-73
2023/07/03 04:46:58;;;;;;;7.53;2.90;;;;;;;;;;5023919;28;20040;-72
2023/07/03 04:49:26;;;;;;;6.95;3.00;;;;;;;;;;5021842;28;20097;-73
2023/07/03 04:51:52;;;;;;;4.85;2.53;;;;;;;;;;5022788;28;20037;-73
2023/07/03 04:54:18;;;;;;;4.60;2.33;;;;;;;;;;5023600;28;20029;-74
2023/07/03 04:56:44;;;;;;;5.57;2.50;;;;;;;;;;5023537;28;20044;-74
2023/07/03 04:59:10;;;;;;;9.48;3.15;;;;;;;;;;5023560;28;20033;-73
2023/07/03 05:01:36;;;;;;;7.22;2.42;;;;;;;;;;5023863;28;20033;-73
2023/07/03 05:04:01;;;;;;;9.27;3.10;;;;;;;;;;5023597;28;20056;-70
2023/07/03 05:06:27;;;;;;;4.97;2.70;;;;;;;;;;5023772;28;20026;-72
2023/07/03 05:08:52;;;;;;;5.28;2.55;;;;;;;;;;5022954;28;20021;-73
2023/07/03 05:11:18;;;;;;;4.40;2.38;;;;;;;;;;5023699;28;20041;-73
2023/07/03 05:13:43;;;;;;;5.45;2.58;;;;;;;;;;5023237;28;20032;-74
2023/07/03 05:16:08;;;;;;;5.60;2.58;;;;;;;;;;5022759;28;20049;-73
2023/07/03 05:18:34;;;;;;;8.55;2.85;;;;;;;;;;5023249;28;20092;-73
2023/07/03 05:21:00;;;;;;;9.60;2.58;;;;;;;;;;5023475;28;20032;-73
2023/07/03 05:23:26;;;;;;;5.53;2.50;;;;;;;;;;5022963;28;20107;-68
2023/07/03 05:25:51;;;;;;;8.13;2.70;;;;;;;;;;5023304;28;20045;-73
2023/07/03 05:28:16;;;;;;;6.03;2.63;;;;;;;;;;5022952;28;20550;-73
2023/07/03 05:30:42;;;;;;;8.23;2.95;;;;;;;;;;5021947;28;20309;-73
2023/07/03 05:33:10;;;;;;;5.32;2.65;;;;;;;;;;5020860;28;20049;-73
2023/07/03 05:35:36;;;;;;;7.32;2.80;;;;;;;;;;5021474;28;20037;-74
2023/07/03 05:38:02;;;;;;;4.63;2.78;;;;;;;;;;5022196;28;20030;-74
2023/07/03 05:40:31;;;;;;;5.72;3.05;;;;;;;;;;5021870;28;20028;-73
2023/07/03 05:42:56;;;;;;;6.90;2.97;;;;;;;;;;5021673;28;20033;-72
2023/07/03 05:45:21;;;;;;;4.93;2.90;;;;;;;;;;5022684;28;20300;-74
2023/07/03 05:47:47;;;;;;;5.00;2.83;;;;;;;;;;5022505;28;20028;-73
2023/07/03 05:50:12;;;;;;;5.63;2.40;;;;;;;;;;5022633;28;20265;-74
2023/07/03 05:52:40;;;;;;;8.40;3.20;;;;;;;;;;5020093;28;20041;-74
2023/07/03 05:55:06;;;;;;;8.52;2.90;;;;;;;;;;5022549;28;20045;-67
2023/07/03 05:57:31;;;;;;;6.00;3.17;;;;;;;;;;5022579;28;20025;-73
2023/07/03 05:59:59;;;;;;;8.07;2.95;;;;;;;;;;5021150;28;20080;-74
2023/07/03 06:02:24;;;;;;;5.30;2.35;;;;;;;;;;5021460;28;20545;-68
2023/07/03 06:04:51;;;;;;;5.38;2.95;;;;;;;;;;5022167;28;20076;-73
2023/07/03 06:07:16;;;;;;;7.38;2.72;;;;;;;;;;5020741;28;20030;-73
2023/07/03 06:09:42;;;;;;;5.63;2.85;;;;;;;;;;5021849;28;20038;-74
2023/07/03 06:12:08;;;;;;;5.68;2.47;;;;;;;;;;5019894;28;20057;-71
2023/07/03 06:14:33;;;;;;;5.03;2.55;;;;;;;;;;5020750;28;20034;-74
2023/07/03 06:16:59;;;;;;;7.55;3.30;;;;;;;;;;5022111;28;20044;-72
2023/07/03 06:19:26;;;;;;;4.50;2.70;;;;;;;;;;5022146;28;20054;-73
2023/07/03 06:21:51;;;;;;;6.50;3.10;;;;;;;;;;5022016;28;20057;-73
2023/07/03 06:24:17;;;;;;;6.65;3.13;;;;;;;;;;5019210;28;20084;-74
2023/07/03 06:26:43;;;;;;;5.53;2.90;;;;;;;;;;5019671;28;20049;-74
2023/07/03 06:29:10;;;;;;;5.53;2.72;;;;;;;;;;5021759;28;20336;-74
2023/07/03 06:31:36;;;;;;;8.20;2.75;;;;;;;;;;5020822;28;20145;-73
2023/07/03 06:34:05;;;;;;;6.72;2.95;;;;;;;;;;5020395;28;20292;-73
2023/07/03 06:36:34;;;;;;;9.15;2.45;;;;;;;;;;5019259;28;20420;-73
2023/07/03 06:39:08;;;;;;;6.23;2.77;;;;;;;;;;5020496;28;20049;-73
2023/07/03 06:41:34;;;;;;;6.50;3.00;;;;;;;;;;5021868;28;20029;-73
2023/07/03 06:44:00;;;;;;;5.72;2.50;;;;;;;;;;5020917;28;20092;-74
2023/07/03 06:46:26;;;;;;;6.25;3.03;;;;;;;;;;5021687;28;20195;-71
2023/07/03 06:48:54;;;;;;;6.30;2.40;;;;;;;;;;5017968;28;20087;-72
2023/07/03 06:51:19;;;;;;;6.13;2.78;;;;;;;;;;5021828;28;20037;-74
2023/07/03 06:53:45;;;;;;;7.93;2.67;;;;;;;;;;5021457;28;20044;-76
2023/07/03 06:56:10;;;;;;;5.43;2.60;;;;;;;;;;5021560;28;20033;-74
2023/07/03 06:58:36;;;;;;;4.85;2.40;;;;;;;;;;5021474;28;20021;-74
2023/07/03 07:01:12;;;;;;;8.07;2.47;;;;;;;;;;5021337;28;20036;-73
2023/07/03 07:03:38;;;;;;;6.18;2.30;;;;;;;;;;5021508;28;20030;-67
2023/07/03 07:06:10;;;;;;;5.00;2.50;;;;;;;;;;5021449;28;20050;-74
2023/07/03 07:08:36;;;;;;;3.92;2.08;;;;;;;;;;5020964;28;20044;-73
2023/07/03 07:11:02;;;;;;;4.40;2.63;;;;;;;;;;5021261;28;20030;-73
2023/07/03 07:13:27;;;;;;;5.20;2.38;;;;;;;;;;5021266;28;20253;-73
2023/07/03 07:15:52;;;;;;;4.70;2.22;;;;;;;;;;5021147;28;20022;-74
2023/07/03 07:18:18;;;;;;;9.98;3.13;;;;;;;;;;5019161;28;20322;-72
2023/07/03 07:20:43;;;;;;;8.80;3.35;;;;;;;;;;5020949;28;20273;-74
2023/07/03 07:23:09;;;;;;;5.85;2.13;;;;;;;;;;5016143;28;20029;-69
2023/07/03 07:25:37;;;;;;;4.95;1.88;;;;;;;;;;5019962;28;20029;-72
2023/07/03 07:28:02;;;;;;;5.35;2.25;;;;;;;;;;5020958;28;20041;-73
2023/07/03 07:30:28;;;;;;;8.60;2.80;;;;;;;;;;5018911;28;20026;-71
2023/07/03 07:32:53;;;;;;;6.93;2.28;;;;;;;;;;5020877;28;20038;-73
2023/07/03 07:35:19;;;;;;;6.20;2.22;;;;;;;;;;5016216;28;20026;-73
2023/07/03 07:37:44;;;;;;;5.25;2.38;;;;;;;;;;5011566;28;20044;-73
2023/07/03 07:40:11;;;;;;;8.80;1.92;;;;;;;;;;5020088;28;20333;-82
2023/07/03 07:42:37;;;;;;;5.90;2.10;;;;;;;;;;5020264;28;20072;-73
2023/07/03 07:45:04;;;;;;;10.52;2.58;;;;;;;;;;5019761;28;20033;-72
2023/07/03 07:47:30;;;;;;;6.30;1.80;;;;;;;;;;5020520;28;20029;-74
2023/07/03 07:49:55;;;;;;;4.65;2.30;;;;;;;;;;5019462;28;20097;-74
2023/07/03 07:52:23;;;;;;;4.30;1.35;;;;;;;;;;5020122;28;20462;-76
2023/07/03 07:54:57;;;;;;;3.22;1.65;;;;;;;;;;5020258;28;20025;-75
2023/07/03 07:57:23;;;;;;;3.92;1.65;;;;;;;;;;5019409;28;20191;-77
2023/07/03 07:59:48;;;;;;;4.95;1.85;;;;;;;;;;5010204;28;20037;-77
2023/07/03 08:02:14;;;;;;;3.42;1.40;;;;;;;;;;5017343;28;20029;-77
2023/07/03 08:04:39;;;;;;;2.92;1.48;;;;;;;;;;5001497;28;20026;-77
2023/07/03 08:07:05;;;;;;;4.22;1.63;;;;;;;;;;5004212;28;20033;-76
2023/07/03 08:09:30;;;;;;;4.38;1.77;;;;;;;;;;5019987;28;20097;-77
2023/07/03 08:11:56;;;;;;;3.90;1.95;;;;;;;;;;5020370;28;20026;-78
2023/07/03 08:14:21;;;;;;;6.97;1.90;;;;;;;;;;5020494;28;20216;-76
2023/07/03 08:16:47;;;;;;;5.13;2.17;;;;;;;;;;5019569;28;20022;-74
2023/07/03 08:19:12;;;;;;;3.65;1.70;;;;;;;;;;5019733;28;20241;-77
2023/07/03 08:21:40;;;;;;;4.72;1.67;;;;;;;;;;5008248;28;20032;-74
2023/07/03 08:24:05;;;;;;;8.13;2.05;;;;;;;;;;5017920;28;20041;-74
2023/07/03 08:26:31;;;;;;;4.05;1.95;;;;;;;;;;5000230;28;20022;-74
2023/07/03 08:28:57;;;;;;;4.53;2.08;;;;;;;;;;5005990;28;20045;-75
2023/07/03 08:31:23;;;;;;;5.60;1.70;;;;;;;;;;5019547;28;20022;-87
2023/07/03 08:33:48;;;;;;;4.78;1.70;;;;;;;;;;5034229;28;20046;-74
2023/07/03 08:36:14;;;;;;;5.05;1.70;;;;;;;;;;5019037;28;20052;-74
2023/07/03 08:38:40;;;;;;;6.05;1.50;;;;;;;;;;5019577;28;20030;-74
2023/07/03 08:41:05;;;;;;;2.13;1.40;;;;;;;;;;5018994;28;20354;-71
2023/07/03 08:43:41;;;;;;;3.63;1.80;;;;;;;;;;5019675;28;20025;-71
2023/07/03 08:46:14;;;;;;;4.88;1.85;;;;;;;;;;5019505;28;20034;-72
2023/07/03 08:48:43;;;;;;;2.88;1.58;;;;;;;;;;5015323;28;20034;-71
2023/07/03 08:51:14;;;;;;;3.03;1.60;;;;;;;;;;5017991;28;20050;-77
2023/07/03 08:53:47;;;;;;;3.88;1.80;;;;;;;;;;5027208;28;20025;-72
2023/07/03 08:56:16;;;;;;;4.00;1.20;;;;;;;;;;5032233;28;20030;-72
2023/07/03 08:58:42;;;;;;;3.80;1.70;;;;;;;;;;5028309;28;20022;-73
2023/07/03 09:01:17;;;;;;;4.55;1.60;;;;;;;;;;5038070;28;20036;-72
2023/07/03 09:04:03;;;;;;;2.63;1.45;;;;;;;;;;5037689;28;20030;-74
2023/07/03 09:07:01;;;;;;;3.03;1.30;;;;;;;;;;5020188;28;20030;-73
2023/07/03 09:10:13;;;;;;;7.65;1.48;;;;;;;;;;5039813;28;20040;-73
2023/07/03 09:12:44;;;;;;;3.28;1.55;;;;;;;;;;5058060;28;20047;-76
2023/07/03 09:15:25;;;;;;;2.92;1.50;;;;;;;;;;5060922;28;20039;-76
2023/07/03 09:17:53;;;;;;;2.42;1.35;;;;;;;;;;5049950;28;20265;-76
2023/07/03 09:20:19;;;;;;;3.13;1.70;;;;;;;;;;5040971;28;20045;-75
2023/07/03 09:23:12;;;;;;;2.53;1.40;;;;;;;;;;5023980;28;20036;-72
2023/07/03 09:25:58;;;;;;;3.50;1.65;;;;;;;;;;5002601;28;20429;-71
2023/07/03 09:28:24;;;;;;;3.25;1.50;;;;;;;;;;5003501;28;20113;-68
2023/07/03 09:30:52;;;;;;;2.10;1.30;;;;;;;;;;5002089;28;20038;-73
2023/07/03 09:33:18;;;;;;;2.35;1.17;;;;;;;;;;4999977;28;20054;-72
2023/07/03 09:35:43;;;;;;;2.33;1.20;;;;;;;;;;5014770;28;20104;-72
2023/07/03 09:38:19;;;;;;;2.38;1.20;;;;;;;;;;5025517;28;20036;-73
2023/07/03 09:40:48;;;;;;;2.28;1.20;;;;;;;;;;5026813;28;20018;-73
2023/07/03 09:43:18;;;;;;;2.85;1.15;;;;;;;;;;5018388;28;20029;-69
2023/07/03 09:45:44;;;;;;;3.28;1.40;;;;;;;;;;5024557;28;20048;-67
2023/07/03 09:48:23;;;;;;;1.92;1.05;;;;;;;;;;5038027;28;20061;-71
2023/07/03 09:50:49;;;;;;;3.22;1.50;;;;;;;;;;5033150;28;20025;-72
2023/07/03 09:53:30;;;;;;;3.55;1.58;;;;;;;;;;5025806;28;20090;-72
2023/07/03 09:55:58;;;;;;;2.95;1.38;;;;;;;;;;5039304;28;20225;-72
2023/07/03 09:58:26;;;;;;;3.63;1.55;;;;;;;;;;5041142;28;20029;-71
2023/07/03 10:00:54;;;;;;;1.85;1.13;;;;;;;;;;5034956;28;20170;-72
2023/07/03 10:03:26;;;;;;;2.15;1.17;;;;;;;;;;5039017;28;20034;-73
2023/07/03 10:05:53;;;;;;;2.08;1.30;;;;;;;;;;5041850;28;20044;-73
2023/07/03 10:08:22;;;;;;;2.15;1.20;;;;;;;;;;5023800;28;20057;-73
2023/07/03 10:10:50;;;;;;;2.92;1.40;;;;;;;;;;5016241;28;20375;-72
2023/07/03 10:13:27;;;;;;;3.40;1.35;;;;;;;;;;5017373;28;20029;-75
2023/07/03 10:15:55;;;;;;;2.53;1.33;;;;;;;;;;5014830;28;20221;-75
2023/07/03 10:18:27;;;;;;;2.65;1.30;;;;;;;;;;5024921;28;20053;-63
2023/07/03 10:20:53;;;;;;;2.40;1.20;;;;;;;;;;5021452;28;20118;-64
2023/07/03 10:23:23;;;;;;;2.20;1.20;;;;;;;;;;5020901;28;20045;-64
2023/07/03 10:26:11;;;;;;;3.37;1.50;;;;;;;;;;5039689;28;20021;-64
2023/07/03 10:28:45;;;;;;;2.88;1.58;;;;;;;;;;5024038;28;20054;-65
2023/07/03 10:31:21;;;;;;;4.07;1.80;;;;;;;;;;5041024;28;20052;-64
2023/07/03 10:33:50;;;;;;;3.10;1.50;;;;;;;;;;5024736;28;20052;-68
2023/07/03 10:36:24;;;;;;;3.47;1.55;;;;;;;;;;5036690;28;20044;-71
2023/07/03 10:39:03;;;;;;;4.32;2.00;;;;;;;;;;5032723;28;20026;-71
2023/07/03 10:41:49;;;;;;;2.42;1.33;;;;;;;;;;5038566;28;20095;-73
2023/07/03 10:44:41;;;;;;;2.80;1.70;;;;;;;;;;5014284;28;20354;-72
2023/07/03 10:47:32;;;;;;;2.25;1.33;;;;;;;;;;5019001;28;20341;-71
2023/07/03 10:49:57;;;;;;;;;;;;;;;;;;5017720;28;20042;-72
2023/07/03 10:52:33;;;;;;;2.08;1.13;;;;;;;;;;5032363;28;19936;-67
2023/07/03 10:54:59;;;;;;;5.53;2.05;;;;;;;;;;5034519;28;20044;-73
2023/07/03 10:57:33;;;;;;;3.80;2.10;;;;;;;;;;5035957;28;20033;-72
2023/07/03 11:00:06;;;;;;;4.03;1.27;;;;;;;;;;5020383;28;20396;-73
2023/07/03 11:02:47;;;;;;;2.28;1.35;;;;;;;;;;5020264;28;20056;-67
2023/07/03 11:05:25;;;;;;;2.92;1.55;;;;;;;;;;5017198;28;20031;-73
2023/07/03 11:08:15;;;;;;;3.80;1.40;;;;;;;;;;5027929;28;20036;-72
2023/07/03 11:11:36;;;;;;;4.95;2.00;;;;;;;;;;5023598;28;20206;-73
2023/07/03 11:14:19;;;;;;;;;;;;;;;;;;5010234;28;20044;-75
2023/07/03 11:17:29;;;;;;;2.15;1.30;;;;;;;;;;4999451;28;19913;-71
2023/07/03 11:20:12;;;;;;;2.88;1.20;;;;;;;;;;5017715;28;20034;-71
2023/07/03 11:22:50;;;;;;;2.15;1.20;;;;;;;;;;5000440;28;20101;-70
2023/07/03 11:25:26;;;;;;;3.60;1.77;;;;;;;;;;5000151;28;20057;-70
2023/07/03 11:28:07;;;;;;;2.40;1.30;;;;;;;;;;5000299;28;20141;-71
2023/07/03 11:30:33;;;;;;;3.92;1.35;;;;;;;;;;4999983;28;20026;-71
2023/07/03 11:33:01;;;;;;;2.08;1.15;;;;;;;;;;4999921;28;20060;-72
2023/07/03 11:35:26;;;;;;;2.47;1.25;;;;;;;;;;5008565;28;20029;-72
2023/07/03 11:38:05;;;;;;;2.05;1.13;;;;;;;;;;5019483;28;20118;-71
2023/07/03 11:40:58;;;;;;;5.25;1.15;;;;;;;;;;5019686;28;20029;-72
2023/07/03 11:43:31;;;;;;;2.55;1.13;;;;;;;;;;5020342;28;20097;-71
2023/07/03 11:45:57;;;;;;;2.17;1.40;;;;;;;;;;5020326;28;20041;-71
2023/07/03 11:48:28;;;;;;;3.03;1.48;;;;;;;;;;5020453;28;20087;-69
2023/07/03 11:50:58;;;;;;;5.93;1.55;;;;;;;;;;5020633;28;20021;-72
2023/07/03 11:53:29;;;;;;;2.75;1.30;;;;;;;;;;5020415;28;20025;-71
2023/07/03 11:55:55;;;;;;;2.80;1.38;;;;;;;;;;5020680;28;20057;-71
2023/07/03 11:58:30;;;;;;;3.92;1.40;;;;;;;;;;5019131;28;20245;-72
2023/07/03 12:01:22;;;;;;;2.80;1.60;;;;;;;;;;5020330;28;20049;-71
2023/07/03 12:04:03;;;;;;;4.32;1.38;;;;;;;;;;5019895;28;20104;-72
2023/07/03 12:06:47;;;;;;;1.98;1.17;;;;;;;;;;5020401;28;20329;-72
2023/07/03 12:09:21;;;;;;;2.90;1.20;;;;;;;;;;5020091;28;20096;-72
2023/07/03 12:11:59;;;;;;;2.90;1.52;;;;;;;;;;5014582;28;20022;-72
2023/07/03 12:14:40;;;;;;;2.17;1.10;;;;;;;;;;5013613;28;20521;-73
2023/07/03 12:17:35;;;;;;;2.75;1.40;;;;;;;;;;5011927;28;20482;-71
2023/07/03 12:20:06;;;;;;;4.20;1.42;;;;;;;;;;5021807;28;20100;-73
2023/07/03 12:22:35;;;;;;;;;;;;;;;;;;5027076;28;20036;-73
2023/07/03 12:25:25;;;;;;;2.10;0.95;;;;;;;;;;5023199;28;19909;-73
2023/07/03 12:27:52;;;;;;;2.13;1.40;;;;;;;;;;5036682;28;20056;-73
2023/07/03 12:30:29;;;;;;;2.75;1.38;;;;;;;;;;5033698;28;20030;-71
2023/07/03 12:32:56;;;;;;;3.85;1.40;;;;;;;;;;5017148;28;20064;-71
2023/07/03 12:35:36;;;;;;;1.95;1.17;;;;;;;;;;5010069;28;20025;-69
2023/07/03 12:38:09;;;;;;;4.32;1.23;;;;;;;;;;5034258;28;20529;-68
2023/07/03 12:40:44;;;;;;;2.58;1.20;;;;;;;;;;5032313;28;20025;-73
2023/07/03 12:43:14;;;;;;;2.53;1.20;;;;;;;;;;5009321;28;20118;-73
2023/07/03 12:45:39;;;;;;;3.37;1.50;;;;;;;;;;5021301;28;20034;-74
2023/07/03 12:48:08;;;;;;;2.05;1.13;;;;;;;;;;5019931;28;20379;-70
2023/07/03 12:50:52;;;;;;;2.97;1.30;;;;;;;;;;5008249;28;20077;-73
2023/07/03 12:53:18;;;;;;;2.83;1.40;;;;;;;;;;5015180;28;20044;-72
2023/07/03 12:55:48;;;;;;;2.45;1.30;;;;;;;;;;5020831;28;20273;-73
2023/07/03 12:58:14;;;;;;;2.40;1.20;;;;;;;;;;5021649;28;20257;-73
2023/07/03 13:00:39;;;;;;;5.00;1.40;;;;;;;;;;5019660;28;20394;-73
2023/07/03 13:03:07;;;;;;;2.38;1.30;;;;;;;;;;5021204;28;20432;-72
2023/07/03 13:05:35;;;;;;;2.33;1.38;;;;;;;;;;5015396;28;20029;-73
2023/07/03 13:08:06;;;;;;;3.05;1.50;;;;;;;;;;5017078;28;20076;-73
2023/07/03 13:10:31;;;;;;;4.30;1.33;;;;;;;;;;5011449;28;20040;-70
2023/07/03 13:13:06;;;;;;;3.10;1.30;;;;;;;;;;5011323;28;20033;-73
2023/07/03 13:15:38;;;;;;;2.70;1.38;;;;;;;;;;4990201;28;20569;-71
2023/07/03 13:18:12;;;;;;;2.47;1.35;;;;;;;;;;5007210;28;20026;-71
2023/07/03 13:20:38;;;;;;;2.47;1.25;;;;;;;;;;4991039;28;20102;-71
2023/07/03 13:23:06;;;;;;;4.30;1.38;;;;;;;;;;4989389;28;20077;-71
2023/07/03 13:25:38;;;;;;;1.90;1.17;;;;;;;;;;4991618;28;20110;-71
2023/07/03 13:28:10;;;;;;;2.58;1.30;;;;;;;;;;4994471;28;20030;-70
2023/07/03 13:30:40;;;;;;;2.90;1.40;;;;;;;;;;4990812;28;20034;-71
2023/07/03 13:33:10;;;;;;;2.47;1.15;;;;;;;;;;4990744;28;20042;-71
2023/07/03 13:35:41;;;;;;;2.13;1.13;;;;;;;;;;4991042;28;20026;-71
2023/07/03 13:38:18;;;;;;;2.47;1.30;;;;;;;;;;4993589;28;20023;-69
2023/07/03 13:40:48;;;;;;;3.15;1.42;;;;;;;;;;4991859;28;20026;-70
2023/07/03 13:43:21;;;;;;;3.38;1.48;;;;;;;;;;4992056;28;20109;-71
2023/07/03 13:45:49;;;;;;;1.88;1.05;;;;;;;;;;4991872;28;20558;-70
2023/07/03 13:48:15;;;;;;;4.15;1.20;;;;;;;;;;4991425;28;20045;-71
2023/07/03 13:50:40;;;;;;;2.65;1.35;;;;;;;;;;4994962;28;20101;-71
2023/07/03 13:53:05;;;;;;;1.98;1.15;;;;;;;;;;4991519;28;20050;-70
2023/07/03 13:55:31;;;;;;;2.78;1.48;;;;;;;;;;4995242;28;20642;-71
2023/07/03 13:57:57;;;;;;;2.40;1.33;;;;;;;;;;4992298;28;20080;-71
2023/07/03 14:00:22;;;;;;;4.10;1.48;;;;;;;;;;4993446;28;20173;-70
2023/07/03 14:02:48;;;;;;;4.60;1.65;;;;;;;;;;4991552;28;20089;-70
2023/07/03 14:05:13;;;;;;;3.17;1.10;;;;;;;;;;4994490;28;20046;-71
2023/07/03 14:07:38;;;;;;;2.60;1.30;;;;;;;;;;4993475;28;20029;-71
2023/07/03 14:10:05;;;;;;;1.83;1.00;;;;;;;;;;4991290;28;20060;-70
2023/07/03 14:12:30;;;;;;;2.42;1.20;;;;;;;;;;4991247;28;20026;-72
2023/07/03 14:14:55;;;;;;;4.05;1.20;;;;;;;;;;4991002;28;20031;-68
2023/07/03 14:17:21;;;;;;;2.88;1.40;;;;;;;;;;4991307;28;20036;-66
2023/07/03 14:19:46;;;;;;;2.15;1.13;;;;;;;;;;4991243;28;20034;-71
2023/07/03 14:22:12;;;;;;;2.28;1.27;;;;;;;;;;4991470;28;20039;-69
2023/07/03 14:24:37;;;;;;;3.15;1.30;;;;;;;;;;4992644;28;20633;-71
2023/07/03 14:27:03;;;;;;;3.10;1.33;;;;;;;;;;4991063;28;20487;-70
2023/07/03 14:29:28;;;;;;;2.63;1.10;;;;;;;;;;4990635;28;20130;-70
2023/07/03 14:31:54;;;;;;;2.83;1.20;;;;;;;;;;4989847;28;20037;-70
2023/07/03 14:34:19;;;;;;;2.33;1.17;;;;;;;;;;4990498;28;20502;-71
2023/07/03 14:36:45;;;;;;;4.13;1.23;;;;;;;;;;4990653;28;20042;-69
2023/07/03 14:39:10;;;;;;;4.82;1.40;;;;;;;;;;4995000;28;20048;-71
2023/07/03 14:41:36;;;;;;;3.58;1.38;;;;;;;;;;4990766;28;20076;-71
2023/07/03 14:44:02;;;;;;;3.78;1.45;;;;;;;;;;4990684;28;20069;-70
2023/07/03 14:46:28;;;;;;;1.73;1.10;;;;;;;;;;4990686;28;20072;-71
2023/07/03 14:48:54;;;;;;;1.92;1.23;;;;;;;;;;4991059;28;20027;-71
2023/07/03 14:51:20;;;;;;;2.97;1.30;;;;;;;;;;4991411;28;20022;-72
2023/07/03 14:53:46;;;;;;;3.90;1.40;;;;;;;;;;5005233;28;20417;-71
2023/07/03 14:56:11;;;;;;;2.20;1.23;;;;;;;;;;4995855;28;20039;-71